createdAt,value
2018-07-28T00:00:57.407Z,965.06
2018-07-28T00:01:57.458Z,965.06
2018-07-28T00:02:57.528Z,965.07
2018-07-28T00:03:57.583Z,965.08
2018-07-28T00:04:57.611Z,965.09
2018-07-28T00:05:57.665Z,965.09
2018-07-28T00:06:57.713Z,965.04
2018-07-28T00:07:57.789Z,965.02
2018-07-28T00:08:57.819Z,965.03
2018-07-28T00:09:57.873Z,965.01
2018-07-28T00:10:57.920Z,965.02
2018-07-28T00:11:57.971Z,965.02
2018-07-28T00:12:58.051Z,965.01
2018-07-28T00:13:58.074Z,965.08
2018-07-28T00:14:58.125Z,965.04
2018-07-28T00:15:58.176Z,965.04
2018-07-28T00:16:58.228Z,965.03
2018-07-28T00:17:58.317Z,965.06
2018-07-28T00:18:58.336Z,965.01
2018-07-28T00:19:58.382Z,965.03
2018-07-28T00:20:58.436Z,965.03
2018-07-28T00:21:58.486Z,965.01
2018-07-28T00:22:58.579Z,965.03
2018-07-28T00:23:58.590Z,965.04
2018-07-28T00:24:58.643Z,965.03
2018-07-28T00:25:58.692Z,965.03
2018-07-28T00:26:58.744Z,964.99
2018-07-28T00:27:58.826Z,964.99
2018-07-28T00:28:58.846Z,965.03
2018-07-28T00:29:58.898Z,964.98
2018-07-28T00:30:58.951Z,964.99
2018-07-28T00:31:59.003Z,965.00
2018-07-28T00:32:59.079Z,964.99
2018-07-28T00:33:59.106Z,964.99
2018-07-28T00:34:59.156Z,964.94
2018-07-28T00:35:59.206Z,964.98
2018-07-28T00:36:59.292Z,964.94
2018-07-28T00:37:59.311Z,964.93
2018-07-28T00:39:00.110Z,964.93
2018-07-28T00:39:59.415Z,964.95
2018-07-28T00:40:59.464Z,964.90
2018-07-28T00:41:59.541Z,964.94
2018-07-28T00:42:59.569Z,964.96
2018-07-28T00:43:59.619Z,964.94
2018-07-28T00:44:59.697Z,964.95
2018-07-28T00:45:59.720Z,964.95
2018-07-28T00:46:59.773Z,964.92
2018-07-28T00:47:59.825Z,964.99
2018-07-28T00:48:59.883Z,964.97
2018-07-28T00:49:59.950Z,964.95
2018-07-28T00:50:59.981Z,964.96
2018-07-28T00:52:00.030Z,964.94
2018-07-28T00:53:00.086Z,964.92
2018-07-28T00:54:00.134Z,964.89
2018-07-28T00:55:00.208Z,964.91
2018-07-28T00:56:00.238Z,964.88
2018-07-28T00:57:00.286Z,964.90
2018-07-28T00:58:00.363Z,964.89
2018-07-28T00:59:00.388Z,964.85
2018-07-28T01:00:00.444Z,964.87
2018-07-28T01:01:00.492Z,964.87
2018-07-28T01:02:00.553Z,964.87
2018-07-28T01:03:00.620Z,964.86
2018-07-28T01:04:00.645Z,964.85
2018-07-28T01:05:00.721Z,964.87
2018-07-28T01:06:00.749Z,964.87
2018-07-28T01:07:00.800Z,964.86
2018-07-28T01:08:00.876Z,964.83
2018-07-28T01:09:00.905Z,964.86
2018-07-28T01:10:00.963Z,964.89
2018-07-28T01:11:01.006Z,964.88
2018-07-28T01:12:01.057Z,964.82
2018-07-28T01:13:01.132Z,964.84
2018-07-28T01:14:01.162Z,964.83
2018-07-28T01:15:01.214Z,964.82
2018-07-28T01:16:01.265Z,964.78
2018-07-28T01:17:01.370Z,964.79
2018-07-28T01:18:01.408Z,964.83
2018-07-28T01:19:01.416Z,964.74
2018-07-28T01:20:01.467Z,964.76
2018-07-28T01:21:01.523Z,964.75
2018-07-28T01:22:01.569Z,964.73
2018-07-28T01:23:01.655Z,964.69
2018-07-28T01:24:01.677Z,964.74
2018-07-28T01:25:01.730Z,964.72
2018-07-28T01:26:01.779Z,964.71
2018-07-28T01:27:01.830Z,964.70
2018-07-28T01:28:01.901Z,964.70
2018-07-28T01:29:01.933Z,964.70
2018-07-28T01:30:01.984Z,964.68
2018-07-28T01:31:02.057Z,964.65
2018-07-28T01:32:02.092Z,964.65
2018-07-28T01:33:02.141Z,964.65
2018-07-28T01:34:02.211Z,964.62
2018-07-28T01:35:02.236Z,964.63
2018-07-28T01:36:02.321Z,964.60
2018-07-28T01:37:02.340Z,964.60
2018-07-28T01:38:02.392Z,964.61
2018-07-28T01:39:02.442Z,964.60
2018-07-28T01:40:02.493Z,964.63
2018-07-28T01:41:02.574Z,964.61
2018-07-28T01:42:02.596Z,964.60
2018-07-28T01:43:02.648Z,964.60
2018-07-28T01:44:02.721Z,964.57
2018-07-28T01:45:02.753Z,964.57
2018-07-28T01:46:02.802Z,964.58
2018-07-28T01:47:02.854Z,964.56
2018-07-28T01:48:02.903Z,964.55
2018-07-28T01:49:02.976Z,964.56
2018-07-28T01:50:03.005Z,964.52
2018-07-28T01:51:03.065Z,964.53
2018-07-28T01:52:03.134Z,964.49
2018-07-28T01:53:03.165Z,964.48
2018-07-28T01:54:03.223Z,964.48
2018-07-28T01:55:03.261Z,964.49
2018-07-28T01:56:03.313Z,964.45
2018-07-28T01:57:03.386Z,964.48
2018-07-28T01:58:03.414Z,964.45
2018-07-28T01:59:03.500Z,964.41
2018-07-28T02:00:03.516Z,964.46
2018-07-28T02:01:03.569Z,964.41
2018-07-28T02:02:03.644Z,964.44
2018-07-28T02:03:03.670Z,964.42
2018-07-28T02:04:03.750Z,964.38
2018-07-28T02:05:03.782Z,964.38
2018-07-28T02:06:03.825Z,964.34
2018-07-28T02:07:03.896Z,964.31
2018-07-28T02:08:03.925Z,964.33
2018-07-28T02:09:03.982Z,964.31
2018-07-28T02:10:04.054Z,964.33
2018-07-28T02:11:04.080Z,964.25
2018-07-28T02:12:04.131Z,964.26
2018-07-28T02:13:04.183Z,964.28
2018-07-28T02:14:04.235Z,964.25
2018-07-28T02:15:04.309Z,964.22
2018-07-28T02:16:04.336Z,964.24
2018-07-28T02:17:04.388Z,964.24
2018-07-28T02:18:04.437Z,964.26
2018-07-28T02:19:04.487Z,964.27
2018-07-28T02:20:04.566Z,964.24
2018-07-28T02:21:04.591Z,964.27
2018-07-28T02:22:04.642Z,964.24
2018-07-28T02:23:04.694Z,964.24
2018-07-28T02:24:04.744Z,964.23
2018-07-28T02:25:04.821Z,964.21
2018-07-28T02:26:04.847Z,964.22
2018-07-28T02:27:04.897Z,964.18
2018-07-28T02:28:04.949Z,964.15
2018-07-28T02:29:05.000Z,964.12
2018-07-28T02:30:05.085Z,964.19
2018-07-28T02:31:05.125Z,964.19
2018-07-28T02:32:05.154Z,964.17
2018-07-28T02:33:05.205Z,964.19
2018-07-28T02:34:05.260Z,964.22
2018-07-28T02:35:05.306Z,964.20
2018-07-28T02:36:05.386Z,964.21
2018-07-28T02:37:05.412Z,964.23
2018-07-28T02:38:05.459Z,964.16
2018-07-28T02:39:05.512Z,964.16
2018-07-28T02:40:05.561Z,964.17
2018-07-28T02:41:05.641Z,964.15
2018-07-28T02:42:05.664Z,964.17
2018-07-28T02:43:05.719Z,964.14
2018-07-28T02:44:05.768Z,964.16
2018-07-28T02:45:05.818Z,964.16
2018-07-28T02:46:05.891Z,964.17
2018-07-28T02:47:05.920Z,964.17
2018-07-28T02:48:05.972Z,964.18
2018-07-28T02:49:06.022Z,964.17
2018-07-28T02:50:06.082Z,964.15
2018-07-28T02:51:06.150Z,964.14
2018-07-28T02:52:06.176Z,964.13
2018-07-28T02:53:06.228Z,964.10
2018-07-28T02:54:06.278Z,964.12
2018-07-28T02:55:06.328Z,964.13
2018-07-28T02:56:06.402Z,964.17
2018-07-28T02:57:06.440Z,964.15
2018-07-28T02:58:06.481Z,964.19
2018-07-28T02:59:06.535Z,964.16
2018-07-28T03:00:06.661Z,964.21
2018-07-28T03:01:06.660Z,964.24
2018-07-28T03:02:06.687Z,964.23
2018-07-28T03:03:06.740Z,964.25
2018-07-28T03:04:06.792Z,964.29
2018-07-28T03:05:06.847Z,964.32
2018-07-28T03:06:06.931Z,964.32
2018-07-28T03:07:06.941Z,964.35
2018-07-28T03:08:06.993Z,964.39
2018-07-28T03:09:07.045Z,964.37
2018-07-28T03:10:07.100Z,964.35
2018-07-28T03:11:07.178Z,964.33
2018-07-28T03:12:07.199Z,964.34
2018-07-28T03:13:07.255Z,964.35
2018-07-28T03:14:07.302Z,964.34
2018-07-28T03:15:07.351Z,964.36
2018-07-28T03:16:07.427Z,964.34
2018-07-28T03:17:07.457Z,964.29
2018-07-28T03:18:07.538Z,964.28
2018-07-28T03:19:07.556Z,964.36
2018-07-28T03:20:07.608Z,964.33
2018-07-28T03:21:07.658Z,964.34
2018-07-28T03:22:07.738Z,964.31
2018-07-28T03:23:07.785Z,964.34
2018-07-28T03:24:08.360Z,964.34
2018-07-28T03:25:07.862Z,964.32
2018-07-28T03:26:07.913Z,964.37
2018-07-28T03:27:07.964Z,964.34
2018-07-28T03:28:08.047Z,964.36
2018-07-28T03:29:08.068Z,964.32
2018-07-28T03:30:08.119Z,964.32
2018-07-28T03:31:08.168Z,964.36
2018-07-28T03:32:08.222Z,964.33
2018-07-28T03:33:08.305Z,964.32
2018-07-28T03:34:08.322Z,964.34
2018-07-28T03:35:08.372Z,964.31
2018-07-28T03:36:08.423Z,964.39
2018-07-28T03:37:08.474Z,964.37
2018-07-28T03:38:08.570Z,964.36
2018-07-28T03:39:08.579Z,964.37
2018-07-28T03:40:08.630Z,964.40
2018-07-28T03:41:08.678Z,964.40
2018-07-28T03:42:08.730Z,964.44
2018-07-28T03:43:08.805Z,964.43
2018-07-28T03:44:08.855Z,964.39
2018-07-28T03:45:08.886Z,964.43
2018-07-28T03:46:08.935Z,964.43
2018-07-28T03:47:08.984Z,964.44
2018-07-28T03:48:09.037Z,964.47
2018-07-28T03:49:09.156Z,964.45
2018-07-28T03:50:09.148Z,964.45
2018-07-28T03:51:09.190Z,964.47
2018-07-28T03:52:09.241Z,964.47
2018-07-28T03:53:09.293Z,964.49
2018-07-28T03:54:09.373Z,964.51
2018-07-28T03:55:09.395Z,964.51
2018-07-28T03:56:09.445Z,964.50
2018-07-28T03:57:09.497Z,964.52
2018-07-28T03:58:09.546Z,964.50
2018-07-28T03:59:09.629Z,964.51
2018-07-28T04:00:09.654Z,964.50
2018-07-28T04:01:09.711Z,964.51
2018-07-28T04:02:09.755Z,964.52
2018-07-28T04:03:09.801Z,964.55
2018-07-28T04:04:09.933Z,964.52
2018-07-28T04:05:09.906Z,964.52
2018-07-28T04:06:09.955Z,964.53
2018-07-28T04:07:10.012Z,964.52
2018-07-28T04:08:10.056Z,964.51
2018-07-28T04:09:10.145Z,964.54
2018-07-28T04:10:10.160Z,964.51
2018-07-28T04:11:10.213Z,964.51
2018-07-28T04:12:10.262Z,964.50
2018-07-28T04:13:10.312Z,964.55
2018-07-28T04:14:10.386Z,964.56
2018-07-28T04:15:10.412Z,964.61
2018-07-28T04:16:10.492Z,964.61
2018-07-28T04:17:10.517Z,964.65
2018-07-28T04:18:10.565Z,964.69
2018-07-28T04:19:10.616Z,964.68
2018-07-28T04:20:10.690Z,964.71
2018-07-28T04:21:10.743Z,964.69
2018-07-28T04:22:10.769Z,964.69
2018-07-28T04:23:10.821Z,964.72
2018-07-28T04:24:10.871Z,964.75
2018-07-28T04:25:10.947Z,964.73
2018-07-28T04:26:10.997Z,964.76
2018-07-28T04:27:11.027Z,964.78
2018-07-28T04:28:11.073Z,964.73
2018-07-28T04:29:11.133Z,964.75
2018-07-28T04:30:11.204Z,964.71
2018-07-28T04:31:11.226Z,964.74
2018-07-28T04:32:11.278Z,964.72
2018-07-28T04:33:11.329Z,964.68
2018-07-28T04:34:11.389Z,964.68
2018-07-28T04:35:11.458Z,964.68
2018-07-28T04:36:11.486Z,964.67
2018-07-28T04:37:11.672Z,964.65
2018-07-28T04:38:11.584Z,964.67
2018-07-28T04:39:11.640Z,964.68
2018-07-28T04:40:11.686Z,964.67
2018-07-28T04:41:11.760Z,964.67
2018-07-28T04:42:11.815Z,964.67
2018-07-28T04:43:11.842Z,964.68
2018-07-28T04:44:11.892Z,964.67
2018-07-28T04:45:11.946Z,964.68
2018-07-28T04:46:12.022Z,964.71
2018-07-28T04:47:12.043Z,964.70
2018-07-28T04:48:12.099Z,964.73
2018-07-28T04:49:12.144Z,964.75
2018-07-28T04:50:12.196Z,964.76
2018-07-28T04:51:12.284Z,964.77
2018-07-28T04:52:12.301Z,964.82
2018-07-28T04:53:12.348Z,964.77
2018-07-28T04:54:12.399Z,964.79
2018-07-28T04:55:12.448Z,964.79
2018-07-28T04:56:12.535Z,964.75
2018-07-28T04:57:12.551Z,964.79
2018-07-28T04:58:12.605Z,964.81
2018-07-28T04:59:12.659Z,964.81
2018-07-28T05:00:12.705Z,964.79
2018-07-28T05:01:12.781Z,964.84
2018-07-28T05:02:12.810Z,964.82
2018-07-28T05:03:12.884Z,964.79
2018-07-28T05:04:12.911Z,964.82
2018-07-28T05:05:12.970Z,964.82
2018-07-28T05:06:13.012Z,964.81
2018-07-28T05:07:13.126Z,964.79
2018-07-28T05:08:13.140Z,964.79
2018-07-28T05:09:13.165Z,964.79
2018-07-28T05:10:13.219Z,964.84
2018-07-28T05:11:13.272Z,964.82
2018-07-28T05:12:13.342Z,964.83
2018-07-28T05:13:13.393Z,964.84
2018-07-28T05:14:13.425Z,964.82
2018-07-28T05:15:13.479Z,964.84
2018-07-28T05:16:13.524Z,964.83
2018-07-28T05:17:13.575Z,964.83
2018-07-28T05:18:13.650Z,964.83
2018-07-28T05:19:13.677Z,964.81
2018-07-28T05:20:13.729Z,964.80
2018-07-28T05:21:13.780Z,964.81
2018-07-28T05:22:13.848Z,964.80
2018-07-28T05:23:13.907Z,964.77
2018-07-28T05:24:13.960Z,964.82
2018-07-28T05:25:13.990Z,964.83
2018-07-28T05:26:14.041Z,964.82
2018-07-28T05:27:14.088Z,964.82
2018-07-28T05:28:14.164Z,964.81
2018-07-28T05:29:14.193Z,964.78
2018-07-28T05:30:14.244Z,964.79
2018-07-28T05:31:14.298Z,964.80
2018-07-28T05:32:14.349Z,964.81
2018-07-28T05:33:14.422Z,964.81
2018-07-28T05:34:14.473Z,964.80
2018-07-28T05:35:14.502Z,964.78
2018-07-28T05:36:14.552Z,964.76
2018-07-28T05:37:14.681Z,964.75
2018-07-28T05:38:14.679Z,964.78
2018-07-28T05:39:14.732Z,964.77
2018-07-28T05:40:14.771Z,964.76
2018-07-28T05:41:14.811Z,964.78
2018-07-28T05:42:14.865Z,964.77
2018-07-28T05:43:14.938Z,964.79
2018-07-28T05:44:14.967Z,964.81
2018-07-28T05:45:15.017Z,964.82
2018-07-28T05:46:15.068Z,964.80
2018-07-28T05:47:15.123Z,964.83
2018-07-28T05:48:15.207Z,964.78
2018-07-28T05:49:15.222Z,964.81
2018-07-28T05:50:15.343Z,964.81
2018-07-28T05:51:15.330Z,964.79
2018-07-28T05:52:15.379Z,964.78
2018-07-28T05:53:15.457Z,964.77
2018-07-28T05:54:15.513Z,964.80
2018-07-28T05:55:15.540Z,964.77
2018-07-28T05:56:15.592Z,964.77
2018-07-28T05:57:15.635Z,964.77
2018-07-28T05:58:15.689Z,964.77
2018-07-28T05:59:15.766Z,964.78
2018-07-28T06:00:15.792Z,964.76
2018-07-28T06:01:15.850Z,964.76
2018-07-28T06:02:16.741Z,964.77
2018-07-28T06:03:15.949Z,964.79
2018-07-28T06:04:16.028Z,964.82
2018-07-28T06:05:16.057Z,964.83
2018-07-28T06:06:16.109Z,964.87
2018-07-28T06:07:16.199Z,964.85
2018-07-28T06:08:16.208Z,964.88
2018-07-28T06:09:16.281Z,964.87
2018-07-28T06:10:16.336Z,964.87
2018-07-28T06:11:16.364Z,964.91
2018-07-28T06:12:16.436Z,964.93
2018-07-28T06:13:16.467Z,964.89
2018-07-28T06:14:16.559Z,964.90
2018-07-28T06:15:17.221Z,964.90
2018-07-28T06:16:17.410Z,964.89
2018-07-28T06:17:16.672Z,964.94
2018-07-28T06:18:16.725Z,964.97
2018-07-28T06:19:16.780Z,964.98
2018-07-28T06:20:16.897Z,965.05
2018-07-28T06:21:16.883Z,965.09
2018-07-28T06:22:16.940Z,965.17
2018-07-28T06:23:16.987Z,965.19
2018-07-28T06:24:17.039Z,965.23
2018-07-28T06:25:17.122Z,965.30
2018-07-28T06:26:17.142Z,965.34
2018-07-28T06:27:17.193Z,965.36
2018-07-28T06:28:17.249Z,965.32
2018-07-28T06:29:17.299Z,965.32
2018-07-28T06:30:17.401Z,965.24
2018-07-28T06:31:17.403Z,965.20
2018-07-28T06:32:17.456Z,965.17
2018-07-28T06:33:17.508Z,965.09
2018-07-28T06:34:17.565Z,965.12
2018-07-28T06:35:17.644Z,965.08
2018-07-28T06:36:17.665Z,965.12
2018-07-28T06:37:17.717Z,965.11
2018-07-28T06:38:17.772Z,965.09
2018-07-28T06:39:17.823Z,965.09
2018-07-28T06:40:17.899Z,965.08
2018-07-28T06:41:17.928Z,965.08
2018-07-28T06:42:17.981Z,965.08
2018-07-28T06:43:18.034Z,965.04
2018-07-28T06:44:18.086Z,965.07
2018-07-28T06:45:18.178Z,965.02
2018-07-28T06:46:18.193Z,965.00
2018-07-28T06:47:18.300Z,964.99
2018-07-28T06:48:18.302Z,964.98
2018-07-28T06:49:18.350Z,964.98
2018-07-28T06:50:18.433Z,964.95
2018-07-28T06:51:18.456Z,964.95
2018-07-28T06:52:18.510Z,965.01
2018-07-28T06:53:18.565Z,965.01
2018-07-28T06:54:18.617Z,965.09
2018-07-28T06:55:18.693Z,965.14
2018-07-28T06:56:18.726Z,965.19
2018-07-28T06:57:18.780Z,965.21
2018-07-28T06:58:18.832Z,965.22
2018-07-28T06:59:18.883Z,965.26
2018-07-28T07:00:18.970Z,965.24
2018-07-28T07:01:18.993Z,965.31
2018-07-28T07:02:19.047Z,965.24
2018-07-28T07:03:19.103Z,965.25
2018-07-28T07:04:19.160Z,965.30
2018-07-28T07:05:19.242Z,965.24
2018-07-28T07:06:19.289Z,965.22
2018-07-28T07:07:19.321Z,965.29
2018-07-28T07:08:19.373Z,965.29
2018-07-28T07:09:19.428Z,965.32
2018-07-28T07:10:19.485Z,965.34
2018-07-28T07:11:19.564Z,965.32
2018-07-28T07:12:19.596Z,965.31
2018-07-28T07:13:19.648Z,965.31
2018-07-28T07:14:19.707Z,965.26
2018-07-28T07:15:19.759Z,965.30
2018-07-28T07:16:19.852Z,965.31
2018-07-28T07:17:19.871Z,965.33
2018-07-28T07:18:19.928Z,965.32
2018-07-28T07:19:19.986Z,965.25
2018-07-28T07:20:20.043Z,965.28
2018-07-28T07:21:20.114Z,965.33
2018-07-28T07:22:20.169Z,965.37
2018-07-28T07:23:20.198Z,965.40
2018-07-28T07:24:20.259Z,965.39
2018-07-28T07:25:20.310Z,965.35
2018-07-28T07:26:20.399Z,965.34
2018-07-28T07:27:20.421Z,965.41
2018-07-28T07:28:20.522Z,965.41
2018-07-28T07:29:20.533Z,965.41
2018-07-28T07:30:20.629Z,965.48
2018-07-28T07:31:20.683Z,965.44
2018-07-28T07:32:20.696Z,965.49
2018-07-28T07:33:20.752Z,965.48
2018-07-28T07:34:20.808Z,965.52
2018-07-28T07:35:20.861Z,965.57
2018-07-28T07:36:20.938Z,965.59
2018-07-28T07:37:21.000Z,965.56
2018-07-28T07:38:21.024Z,965.55
2018-07-28T07:39:21.080Z,965.57
2018-07-28T07:40:21.133Z,965.57
2018-07-28T07:41:21.190Z,965.60
2018-07-28T07:42:21.281Z,965.69
2018-07-28T07:43:21.296Z,965.75
2018-07-28T07:44:21.362Z,965.77
2018-07-28T07:45:21.410Z,965.80
2018-07-28T07:46:21.481Z,965.87
2018-07-28T07:47:21.580Z,965.92
2018-07-28T07:48:21.573Z,965.93
2018-07-28T07:49:21.630Z,965.99
2018-07-28T07:50:21.681Z,965.98
2018-07-28T07:51:21.742Z,966.02
2018-07-28T07:52:21.820Z,966.04
2018-07-28T07:53:21.844Z,966.11
2018-07-28T07:54:21.899Z,966.13
2018-07-28T07:55:21.955Z,966.18
2018-07-28T07:56:22.011Z,966.26
2018-07-28T07:57:22.107Z,966.35
2018-07-28T07:58:22.122Z,966.37
2018-07-28T07:59:22.172Z,966.45
2018-07-28T08:00:22.225Z,966.44
2018-07-28T08:01:22.281Z,966.55
2018-07-28T08:02:22.380Z,966.63
2018-07-28T08:03:22.387Z,966.66
2018-07-28T08:04:22.443Z,966.76
2018-07-28T08:05:22.498Z,966.83
2018-07-28T08:06:22.566Z,966.94
2018-07-28T08:07:22.632Z,967.00
2018-07-28T08:08:22.685Z,967.17
2018-07-28T08:09:22.715Z,967.24
2018-07-28T08:10:22.769Z,967.40
2018-07-28T08:11:22.824Z,967.52
2018-07-28T08:12:22.881Z,967.51
2018-07-28T08:13:22.956Z,967.42
2018-07-28T08:14:22.989Z,967.42
2018-07-28T08:15:23.042Z,967.47
2018-07-28T08:16:23.095Z,967.45
2018-07-28T08:17:23.153Z,967.53
2018-07-28T08:18:23.227Z,967.48
2018-07-28T08:19:23.279Z,967.48
2018-07-28T08:20:23.312Z,967.54
2018-07-28T08:21:23.365Z,967.55
2018-07-28T08:22:23.418Z,967.57
2018-07-28T08:23:23.472Z,967.64
2018-07-28T08:24:23.547Z,967.64
2018-07-28T08:25:23.578Z,967.60
2018-07-28T08:26:23.639Z,967.65
2018-07-28T08:27:23.685Z,967.67
2018-07-28T08:28:23.743Z,967.70
2018-07-28T08:29:23.827Z,967.68
2018-07-28T08:30:23.846Z,967.62
2018-07-28T08:31:23.903Z,967.66
2018-07-28T08:32:23.957Z,967.64
2018-07-28T08:33:24.028Z,967.66
2018-07-28T08:34:24.085Z,967.64
2018-07-28T08:35:24.115Z,967.67
2018-07-28T08:36:24.236Z,967.66
2018-07-28T08:37:24.225Z,967.66
2018-07-28T08:38:24.276Z,967.64
2018-07-28T08:39:24.331Z,967.70
2018-07-28T08:40:24.413Z,967.75
2018-07-28T08:41:24.436Z,967.72
2018-07-28T08:42:24.491Z,967.62
2018-07-28T08:43:24.542Z,967.71
2018-07-28T08:44:24.598Z,967.69
2018-07-28T08:45:24.678Z,967.69
2018-07-28T08:46:24.702Z,967.71
2018-07-28T08:47:24.778Z,967.77
2018-07-28T08:48:24.812Z,967.73
2018-07-28T08:49:24.955Z,967.78
2018-07-28T08:50:24.920Z,967.80
2018-07-28T08:51:24.993Z,967.78
2018-07-28T08:52:25.023Z,967.81
2018-07-28T08:53:25.077Z,967.78
2018-07-28T08:54:25.130Z,967.82
2018-07-28T08:55:25.209Z,967.85
2018-07-28T08:56:25.275Z,967.85
2018-07-28T08:57:25.291Z,967.89
2018-07-28T08:58:25.345Z,967.88
2018-07-28T08:59:25.399Z,967.89
2018-07-28T09:00:25.453Z,967.90
2018-07-28T09:01:25.540Z,967.92
2018-07-28T09:02:25.558Z,967.87
2018-07-28T09:03:25.611Z,967.96
2018-07-28T09:04:25.671Z,967.93
2018-07-28T09:05:25.717Z,967.95
2018-07-28T09:06:25.809Z,967.95
2018-07-28T09:07:25.825Z,967.98
2018-07-28T09:08:25.909Z,968.01
2018-07-28T09:09:25.934Z,968.01
2018-07-28T09:10:25.991Z,968.01
2018-07-28T09:11:26.070Z,968.03
2018-07-28T09:12:26.179Z,968.07
2018-07-28T09:13:26.151Z,968.04
2018-07-28T09:14:26.206Z,968.03
2018-07-28T09:15:26.256Z,968.08
2018-07-28T09:16:26.355Z,968.05
2018-07-28T09:17:26.367Z,968.08
2018-07-28T09:18:26.441Z,968.09
2018-07-28T09:19:26.474Z,968.14
2018-07-28T09:20:26.524Z,968.10
2018-07-28T09:21:26.581Z,968.11
2018-07-28T09:22:26.678Z,968.09
2018-07-28T09:23:26.802Z,968.11
2018-07-28T09:24:27.282Z,968.12
2018-07-28T09:25:26.793Z,968.17
2018-07-28T09:26:26.850Z,968.14
2018-07-28T09:27:26.913Z,968.15
2018-07-28T09:28:26.985Z,968.15
2018-07-28T09:29:27.010Z,968.16
2018-07-28T09:30:27.077Z,968.17
2018-07-28T09:31:27.115Z,968.19
2018-07-28T09:32:27.173Z,968.16
2018-07-28T09:33:27.246Z,968.18
2018-07-28T09:34:27.287Z,968.19
2018-07-28T09:35:27.333Z,968.15
2018-07-28T09:36:27.386Z,968.19
2018-07-28T09:37:27.439Z,968.18
2018-07-28T09:38:27.534Z,968.17
2018-07-28T09:39:27.546Z,968.14
2018-07-28T09:40:27.604Z,968.15
2018-07-28T09:41:27.654Z,968.20
2018-07-28T09:42:27.709Z,968.20
2018-07-28T09:43:27.793Z,968.19
2018-07-28T09:44:27.815Z,968.21
2018-07-28T09:45:27.870Z,968.18
2018-07-28T09:46:27.990Z,968.09
2018-07-28T09:47:27.975Z,968.10
2018-07-28T09:48:28.058Z,968.09
2018-07-28T09:49:28.084Z,968.06
2018-07-28T09:50:28.139Z,968.10
2018-07-28T09:51:28.210Z,968.11
2018-07-28T09:52:28.247Z,968.10
2018-07-28T09:53:28.355Z,968.10
2018-07-28T09:54:28.363Z,968.09
2018-07-28T09:55:28.404Z,968.11
2018-07-28T09:56:28.458Z,968.11
2018-07-28T09:57:28.512Z,968.12
2018-07-28T09:58:28.587Z,968.13
2018-07-28T09:59:28.618Z,968.11
2018-07-28T10:00:28.708Z,968.10
2018-07-28T10:01:28.727Z,968.16
2018-07-28T10:02:28.787Z,968.12
2018-07-28T10:03:28.836Z,968.09
2018-07-28T10:04:28.895Z,968.07
2018-07-28T10:05:29.018Z,968.09
2018-07-28T10:06:28.999Z,968.06
2018-07-28T10:07:29.050Z,968.05
2018-07-28T10:08:29.104Z,968.00
2018-07-28T10:09:29.158Z,968.02
2018-07-28T10:10:29.251Z,968.02
2018-07-28T10:11:29.266Z,967.99
2018-07-28T10:12:29.323Z,967.92
2018-07-28T10:13:29.377Z,967.87
2018-07-28T10:14:29.443Z,967.84
2018-07-28T10:15:29.515Z,967.82
2018-07-28T10:16:29.540Z,967.82
2018-07-28T10:17:29.593Z,967.84
2018-07-28T10:18:29.645Z,967.85
2018-07-28T10:19:29.701Z,967.86
2018-07-28T10:20:29.777Z,967.86
2018-07-28T10:21:29.808Z,967.85
2018-07-28T10:22:29.886Z,967.83
2018-07-28T10:23:29.916Z,967.85
2018-07-28T10:24:30.018Z,967.83
2018-07-28T10:25:30.027Z,967.82
2018-07-28T10:26:30.085Z,967.86
2018-07-28T10:27:30.182Z,967.85
2018-07-28T10:28:30.209Z,967.88
2018-07-28T10:29:30.242Z,967.95
2018-07-28T10:30:30.298Z,967.89
2018-07-28T10:31:30.362Z,967.96
2018-07-28T10:32:30.440Z,968.00
2018-07-28T10:33:30.468Z,968.00
2018-07-28T10:34:30.520Z,968.04
2018-07-28T10:35:30.570Z,968.04
2018-07-28T10:36:30.726Z,968.05
2018-07-28T10:37:30.710Z,968.06
2018-07-28T10:38:30.731Z,968.08
2018-07-28T10:39:30.794Z,968.07
2018-07-28T10:40:30.841Z,968.03
2018-07-28T10:41:30.925Z,968.05
2018-07-28T10:42:30.989Z,967.98
2018-07-28T10:43:31.005Z,967.94
2018-07-28T10:44:31.065Z,967.93
2018-07-28T10:45:31.120Z,967.83
2018-07-28T10:46:31.173Z,967.78
2018-07-28T10:47:31.253Z,967.73
2018-07-28T10:48:31.276Z,967.70
2018-07-28T10:49:31.335Z,967.69
2018-07-28T10:50:31.386Z,967.62
2018-07-28T10:51:31.443Z,967.65
2018-07-28T10:52:31.529Z,967.69
2018-07-28T10:53:31.561Z,967.70
2018-07-28T10:54:31.606Z,967.72
2018-07-28T10:55:31.712Z,967.76
2018-07-28T10:56:31.715Z,967.78
2018-07-28T10:57:31.795Z,967.85
2018-07-28T10:58:31.829Z,967.81
2018-07-28T10:59:31.886Z,967.83
2018-07-28T11:00:31.999Z,967.84
2018-07-28T11:01:32.020Z,967.81
2018-07-28T11:02:32.082Z,967.82
2018-07-28T11:03:32.108Z,967.81
2018-07-28T11:04:32.161Z,967.86
2018-07-28T11:05:32.221Z,967.83
2018-07-28T11:06:32.274Z,967.83
2018-07-28T11:07:32.360Z,967.83
2018-07-28T11:08:32.390Z,967.83
2018-07-28T11:09:32.447Z,967.80
2018-07-28T11:10:32.519Z,967.77
2018-07-28T11:11:32.555Z,967.79
2018-07-28T11:12:32.637Z,967.79
2018-07-28T11:13:32.670Z,967.77
2018-07-28T11:14:32.725Z,967.74
2018-07-28T11:15:32.803Z,967.78
2018-07-28T11:16:32.834Z,967.75
2018-07-28T11:17:32.891Z,967.76
2018-07-28T11:18:33.033Z,967.75
2018-07-28T11:19:33.001Z,967.75
2018-07-28T11:20:33.060Z,967.77
2018-07-28T11:21:33.113Z,967.72
2018-07-28T11:26:35.057Z,967.74
2018-07-28T11:27:35.052Z,967.80
2018-07-28T11:28:34.231Z,967.82
2018-07-28T11:29:34.278Z,967.82
2018-07-28T11:30:34.357Z,967.79
2018-07-28T11:31:34.467Z,967.80
2018-07-28T11:32:34.452Z,967.77
2018-07-28T11:33:36.036Z,967.82
2018-07-28T11:34:38.038Z,967.81
2018-07-28T11:35:34.660Z,967.82
2018-07-28T11:36:34.680Z,967.81
2018-07-28T11:37:34.747Z,967.81
2018-07-28T11:38:34.798Z,967.77
2018-07-28T11:39:34.853Z,967.78
2018-07-28T11:40:35.617Z,967.77
2018-07-28T11:41:34.971Z,967.79
2018-07-28T11:42:35.058Z,967.79
2018-07-28T11:43:38.039Z,967.77
2018-07-28T11:44:35.143Z,967.75
2018-07-28T11:45:35.388Z,967.78
2018-07-28T11:46:35.257Z,967.77
2018-07-28T11:47:35.317Z,967.79
2018-07-28T11:48:35.374Z,967.76
2018-07-28T11:49:35.433Z,967.77
2018-07-28T11:50:35.511Z,967.76
2018-07-28T11:51:35.584Z,967.78
2018-07-28T11:52:35.611Z,967.78
2018-07-28T11:53:35.662Z,967.81
2018-07-28T11:54:36.343Z,967.82
2018-07-28T11:55:35.776Z,967.88
2018-07-28T11:56:35.857Z,967.83
2018-07-28T11:57:35.892Z,967.89
2018-07-28T11:58:35.949Z,967.92
2018-07-28T11:59:36.008Z,967.92
2018-07-28T12:00:36.071Z,967.85
2018-07-28T12:01:36.153Z,967.85
2018-07-28T12:02:36.177Z,967.85
2018-07-28T12:03:36.238Z,967.82
2018-07-28T12:04:36.301Z,967.86
2018-07-28T12:05:36.424Z,967.84
2018-07-28T12:06:36.442Z,967.86
2018-07-28T12:07:36.468Z,967.86
2018-07-28T12:08:36.532Z,967.85
2018-07-28T12:09:36.584Z,967.90
2018-07-28T12:10:36.640Z,967.92
2018-07-28T12:11:36.731Z,967.94
2018-07-28T12:12:36.805Z,967.92
2018-07-28T12:13:36.814Z,967.90
2018-07-28T12:14:36.872Z,967.98
2018-07-28T12:15:36.931Z,967.90
2018-07-28T12:16:37.032Z,967.94
2018-07-28T12:17:37.048Z,967.95
2018-07-28T12:18:37.122Z,967.95
2018-07-28T12:19:37.160Z,967.89
2018-07-28T12:20:37.224Z,967.89
2018-07-28T12:21:37.311Z,967.90
2018-07-28T12:22:37.338Z,967.91
2018-07-28T12:23:37.394Z,967.91
2018-07-28T12:24:37.455Z,967.88
2018-07-28T12:25:37.510Z,967.92
2018-07-28T12:26:37.596Z,967.91
2018-07-28T12:27:37.623Z,967.94
2018-07-28T12:28:37.687Z,967.96
2018-07-28T12:29:37.739Z,967.94
2018-07-28T12:30:37.798Z,968.01
2018-07-28T12:31:37.892Z,967.99
2018-07-28T12:32:37.911Z,968.02
2018-07-28T12:33:37.996Z,968.08